This is the latest recevied weather packets stored in our database for station/object 9W2SSS-1. If no packets are shown the sender has not sent any weather packets the latest 10 day(s).
| Time | Temp. | Humidity | Pressure | Rain* | Wind** | Luminosity | Snow |
|---|---|---|---|---|---|---|---|
| 1777279386 | 32.78° C | 61% | 1006.5 hPa | - | - | - | - |
| 1777278185 | 32.78° C | 60% | 1006.4 hPa | - | - | - | - |
| 1777276985 | 32.78° C | 60% | 1006.3 hPa | - | - | - | - |
| 1777275785 | 32.78° C | 60% | 1006.2 hPa | - | - | - | - |
| 1777274585 | 32.78° C | 61% | 1006 hPa | - | - | - | - |
| 1777273385 | 33.33° C | 60% | 1006.1 hPa | - | - | - | - |
| 1777272185 | 33.89° C | 58% | 1006.4 hPa | - | - | - | - |
| 1777270985 | 34.44° C | 56% | 1006.6 hPa | - | - | - | - |
| 1777269785 | 35° C | 54% | 1006.9 hPa | - | - | - | - |
| 1777268585 | 35.56° C | 51% | 1007 hPa | - | - | - | - |
| 1777267385 | 35.56° C | 50% | 1007.4 hPa | - | - | - | - |
| 1777266185 | 36.11° C | 50% | 1007.6 hPa | - | - | - | - |
| 1777264985 | 36.11° C | 48% | 1007.8 hPa | - | - | - | - |
| 1777263785 | 36.67° C | 46% | 1008.2 hPa | - | - | - | - |
| 1777262585 | 37.78° C | 43% | 1008.6 hPa | - | - | - | - |
| 1777261384 | 38.89° C | 42% | 1009 hPa | - | - | - | - |
| 1777260184 | 39.44° C | 42% | 1008.8 hPa | - | - | - | - |
| 1777258983 | 38.89° C | 43% | 1009.2 hPa | - | - | - | - |
| 1777257783 | 38.33° C | 45% | 1009.3 hPa | - | - | - | - |
| 1777256583 | 40.56° C | 41% | 1009.4 hPa | - | - | - | - |
* Rain since midnight (hover to see other rain measurements)
** Current wind speed in m/s (hover to see current wind gust speed)